Time;durP1;ratioP1;P1;durP2;ratioP2;P2;SDS_P1;SDS_P2;PMS_P1;PMS_P2;Temp;Humidity;BMP_temperature;BMP_pressure;BME280_temperature;BME280_humidity;BME280_pressure;Samples;Min_cycle;Max_cycle;Signal;HPM_P1;HPM_P2
2022/04/02 00:00:55;;;;;;;2.35;1.50;;;;;;;11.34;57.36;93286.44;5012918;28;20033;-77
2022/04/02 00:03:21;;;;;;;2.78;1.50;;;;;;;11.27;58.14;93286.00;5029053;28;20032;-77
2022/04/02 00:05:46;;;;;;;3.80;1.80;;;;;;;11.30;57.92;93281.03;5014668;28;20029;-78
2022/04/02 00:08:12;;;;;;;2.33;1.50;;;;;;;11.31;57.33;93282.56;5048727;28;20087;-76
2022/04/02 00:10:37;;;;;;;4.95;2.28;;;;;;;11.36;57.08;93273.94;5033466;28;20030;-76
2022/04/02 00:13:03;;;;;;;5.38;2.08;;;;;;;11.35;56.31;93273.16;5015680;28;20033;-77
2022/04/02 00:15:29;;;;;;;2.25;1.58;;;;;;;11.40;56.78;93270.53;5015639;28;20067;-77
2022/04/02 00:17:54;;;;;;;3.92;2.20;;;;;;;11.45;55.48;93274.13;5015811;28;20416;-77
2022/04/02 00:20:20;;;;;;;5.07;4.57;;;;;;;11.31;55.80;93279.97;5031954;28;20477;-76
2022/04/02 00:25:30;;;;;;;3.25;1.75;;;;;;;11.37;55.13;93286.69;5047089;28;20112;-78
2022/04/02 00:27:55;;;;;;;2.72;1.73;;;;;;;11.31;55.27;93292.22;5034570;28;20061;-77
2022/04/02 00:30:21;;;;;;;3.25;1.85;;;;;;;11.34;55.10;93291.66;5032946;28;20033;-78
2022/04/02 00:32:47;;;;;;;4.47;1.08;;;;;;;11.38;54.37;93297.84;5034138;28;20049;-78
2022/04/02 00:35:12;;;;;;;1.33;1.23;;;;;;;11.42;54.49;93297.06;5033983;28;20160;-78
2022/04/02 00:37:37;;;;;;;1.92;1.35;;;;;;;11.29;55.06;93299.50;5032487;28;20406;-78
2022/04/02 00:40:03;;;;;;;2.42;1.63;;;;;;;11.28;55.26;93309.16;5016041;28;20041;-78
2022/04/02 00:42:29;;;;;;;3.67;1.67;;;;;;;11.26;55.32;93306.03;5032834;28;20034;-78
2022/04/02 00:44:54;;;;;;;5.00;1.25;;;;;;;11.25;55.36;93298.50;5032549;28;20033;-78
2022/04/02 00:47:20;;;;;;;1.45;1.30;;;;;;;11.21;54.13;93282.66;5032239;28;20034;-78
2022/04/02 00:49:46;;;;;;;1.88;1.20;;;;;;;11.19;54.35;93300.34;5033394;28;20049;-78
2022/04/02 00:52:12;;;;;;;5.60;1.23;;;;;;;11.08;54.95;93293.69;5032446;28;20060;-78
2022/04/02 00:54:39;;;;;;;2.90;1.55;;;;;;;11.05;55.25;93283.81;5033533;28;20485;-78
2022/04/02 00:57:04;;;;;;;1.42;1.33;;;;;;;11.04;54.99;93282.25;5049856;28;20868;-78
2022/04/02 00:59:30;;;;;;;1.75;1.30;;;;;;;11.01;54.65;93283.59;5015693;28;20030;-78
2022/04/02 01:01:56;;;;;;;1.50;1.40;;;;;;;11.05;55.05;93273.41;5049464;28;20025;-78
2022/04/02 01:04:21;;;;;;;1.65;1.55;;;;;;;11.07;55.11;93292.16;5033737;28;20029;-78
2022/04/02 01:06:47;;;;;;;1.20;1.15;;;;;;;11.12;55.40;93302.50;5034784;28;20048;-78
2022/04/02 01:09:12;;;;;;;2.70;1.58;;;;;;;11.17;55.00;93302.47;5056475;28;20063;-78
2022/04/02 01:11:39;;;;;;;2.30;1.67;;;;;;;11.16;54.97;93308.72;5040407;28;20113;-78
2022/04/02 01:14:05;;;;;;;2.35;1.40;;;;;;;11.16;54.79;93316.50;5035465;28;20049;-78
2022/04/02 01:16:32;;;;;;;2.17;1.40;;;;;;;11.23;55.00;93322.19;5015036;28;20022;-78
2022/04/02 01:18:58;;;;;;;1.55;1.45;;;;;;;11.27;54.57;93317.22;5012878;28;20022;-78
2022/04/02 01:21:23;;;;;;;4.00;1.23;;;;;;;11.19;55.03;93333.41;5013089;28;20061;-78
2022/04/02 01:23:49;;;;;;;1.45;1.30;;;;;;;11.19;54.74;93336.78;5001361;28;20563;-78
2022/04/02 01:26:14;;;;;;;7.15;1.30;;;;;;;11.23;54.03;93335.22;5014087;28;20103;-78
2022/04/02 01:28:40;;;;;;;1.45;1.27;;;;;;;11.11;54.38;93345.19;4998130;28;20534;-78
2022/04/02 01:31:06;;;;;;;2.47;1.67;;;;;;;11.13;54.95;93350.88;4998215;28;20496;-78
2022/04/02 01:33:31;;;;;;;1.38;1.25;;;;;;;11.13;54.55;93363.88;4996341;28;20512;-78
2022/04/02 01:36:00;;;;;;;1.50;1.40;;;;;;;11.11;54.45;93360.78;4999643;28;20098;-79
2022/04/02 01:38:29;;;;;;;9.73;1.88;;;;;;;11.11;54.45;93356.34;5032795;28;20045;-78
2022/04/02 01:40:55;;;;;;;1.27;1.17;;;;;;;11.13;54.40;93372.47;5033382;28;20033;-77
2022/04/02 01:43:20;;;;;;;1.90;1.50;;;;;;;11.12;54.48;93365.72;5015575;28;20118;-77
2022/04/02 01:45:46;;;;;;;1.95;1.20;;;;;;;11.06;54.16;93368.59;5014926;28;20044;-77
2022/04/02 01:48:11;;;;;;;2.25;1.40;;;;;;;11.03;54.65;93379.53;5031367;28;20029;-77
2022/04/02 01:50:36;;;;;;;1.17;1.17;;;;;;;11.06;54.63;93376.41;5014845;28;20091;-77
2022/04/02 01:53:02;;;;;;;6.85;1.40;;;;;;;10.92;54.62;93378.84;5033268;28;20060;-78
2022/04/02 01:55:28;;;;;;;1.40;1.30;;;;;;;10.82;55.20;93368.47;5015583;28;20033;-78
2022/04/02 01:57:53;;;;;;;3.50;1.38;;;;;;;10.78;55.18;93373.44;5048233;28;20033;-78
2022/04/02 02:00:21;;;;;;;1.38;1.27;;;;;;;10.76;55.40;93370.34;5005850;28;20548;-78
2022/04/02 02:02:47;;;;;;;2.28;1.40;;;;;;;10.72;55.51;93384.91;4995960;28;20045;-78
2022/04/02 02:05:12;;;;;;;3.05;1.30;;;;;;;10.64;55.92;93369.88;4995456;28;20030;-77
2022/04/02 02:07:38;;;;;;;12.73;1.60;;;;;;;10.64;55.87;93371.69;5013207;28;20551;-78
2022/04/02 02:10:04;;;;;;;5.13;1.30;;;;;;;10.68;55.90;93373.50;5014119;28;20406;-78
2022/04/02 02:12:30;;;;;;;6.05;1.52;;;;;;;10.61;56.48;93347.00;4997343;28;20029;-78
2022/04/02 02:14:55;;;;;;;1.65;1.55;;;;;;;10.56;56.13;93356.63;5013878;28;20030;-78
2022/04/02 02:17:20;;;;;;;8.40;1.38;;;;;;;10.58;56.21;93347.56;5013360;28;20041;-77
2022/04/02 02:19:46;;;;;;;1.73;1.30;;;;;;;10.52;55.65;93343.41;5003292;28;20044;-77
2022/04/02 02:22:11;;;;;;;1.50;1.40;;;;;;;10.51;55.94;93336.66;5019595;28;20040;-78
2022/04/02 02:24:37;;;;;;;1.55;1.45;;;;;;;10.53;55.81;93324.94;4999895;28;20087;-78
2022/04/02 02:27:03;;;;;;;1.40;1.30;;;;;;;10.48;56.30;93337.19;4979365;28;20036;-78
2022/04/02 02:29:28;;;;;;;1.65;1.38;;;;;;;10.51;55.30;93321.84;5011140;28;20038;-77
2022/04/02 02:31:54;;;;;;;6.97;1.30;;;;;;;10.48;55.61;93337.19;5013509;28;20029;-78
2022/04/02 02:37:03;;;;;;;7.38;1.45;;;;;;;10.53;55.12;93324.16;5022971;28;20033;-77
2022/04/02 02:39:29;;;;;;;4.90;1.30;;;;;;;10.50;55.76;93328.09;5017299;28;20030;-77
2022/04/02 02:41:54;;;;;;;1.30;1.17;;;;;;;10.59;55.02;93322.34;4983139;28;20030;-78
2022/04/02 02:44:19;;;;;;;3.25;1.08;;;;;;;10.62;54.31;93327.78;5014498;28;20026;-78
2022/04/02 02:46:45;;;;;;;5.50;1.40;;;;;;;10.65;54.58;93331.66;5017544;28;20026;-77
2022/04/02 02:49:10;;;;;;;2.15;1.20;;;;;;;10.63;54.43;93329.31;5049766;28;20512;-77
2022/04/02 02:51:36;;;;;;;1.50;1.40;;;;;;;10.64;54.49;93317.09;5032169;28;20084;-77
2022/04/02 02:54:01;;;;;;;5.38;1.80;;;;;;;10.70;54.30;93326.41;5032114;28;20036;-77
2022/04/02 02:56:27;;;;;;;2.00;1.80;;;;;;;10.64;54.53;93317.09;5032448;28;20044;-77
2022/04/02 02:58:52;;;;;;;1.88;1.75;;;;;;;10.65;53.92;93316.84;5048514;28;20041;-77
2022/04/02 03:01:18;;;;;;;6.03;1.88;;;;;;;10.71;53.78;93333.19;5029718;28;20044;-78
2022/04/02 03:03:43;;;;;;;2.45;2.10;;;;;;;10.75;54.01;93327.19;5013468;28;20036;-77
2022/04/02 03:06:08;;;;;;;0.95;0.95;;;;;;;10.79;53.15;93333.41;5013905;28;20034;-77
2022/04/02 03:08:34;;;;;;;3.63;1.50;;;;;;;10.82;52.99;93340.66;5031542;28;20033;-78
2022/04/02 03:11:00;;;;;;;1.83;1.35;;;;;;;10.89;53.22;93342.16;5019649;28;20064;-78
2022/04/02 03:13:26;;;;;;;1.63;1.48;;;;;;;10.91;53.01;93335.69;4994754;28;20428;-78
2022/04/02 03:15:51;;;;;;;1.77;1.50;;;;;;;11.00;52.58;93349.66;5011470;28;20037;-77
2022/04/02 03:18:17;;;;;;;3.10;1.73;;;;;;;11.07;51.71;93359.78;4994314;28;20040;-77
2022/04/02 03:20:43;;;;;;;2.35;1.98;;;;;;;11.08;51.92;93351.69;4978082;28;20030;-77
2022/04/02 03:23:09;;;;;;;1.85;1.20;;;;;;;11.13;52.15;93343.06;4994510;28;20109;-78
2022/04/02 03:25:34;;;;;;;4.07;1.48;;;;;;;11.16;51.82;93346.97;4994579;28;20030;-77
2022/04/02 03:27:59;;;;;;;4.68;3.05;;;;;;;11.08;52.13;93343.13;4994351;28;20038;-78
2022/04/02 03:30:25;;;;;;;3.85;2.45;;;;;;;11.04;52.44;93355.09;4978652;28;20038;-78
2022/04/02 03:32:52;;;;;;;2.35;1.30;;;;;;;10.93;52.54;93358.81;4994995;28;20030;-78
2022/04/02 03:35:18;;;;;;;1.10;1.10;;;;;;;10.94;52.79;93355.16;5021148;28;20080;-78
2022/04/02 03:37:44;;;;;;;1.40;1.30;;;;;;;10.93;52.28;93356.22;4994641;28;20085;-78
2022/04/02 03:40:11;;;;;;;1.40;1.30;;;;;;;10.89;52.10;93350.75;5012223;28;20111;-77
2022/04/02 03:42:39;;;;;;;1.58;1.17;;;;;;;10.89;52.30;93347.38;4995481;28;20038;-77
2022/04/02 03:45:06;;;;;;;3.35;1.70;;;;;;;10.88;53.03;93348.41;5011701;28;20030;-77
2022/04/02 03:47:31;;;;;;;2.00;1.60;;;;;;;10.90;52.62;93348.94;5011109;28;20033;-78
2022/04/02 03:49:57;;;;;;;3.67;2.65;;;;;;;10.90;52.63;93344.53;5011768;28;20069;-78
2022/04/02 03:52:22;;;;;;;7.80;2.22;;;;;;;10.93;52.48;93353.63;5010820;28;20030;-77
2022/04/02 03:54:48;;;;;;;2.70;2.00;;;;;;;10.87;51.70;93349.47;5012764;28;20034;-77
2022/04/02 03:57:14;;;;;;;3.25;1.83;;;;;;;10.93;51.44;93344.00;4978664;28;20041;-78
2022/04/02 03:59:40;;;;;;;2.15;1.40;;;;;;;10.98;50.29;93351.75;4996870;28;20034;-77
2022/04/02 04:02:06;;;;;;;1.23;1.13;;;;;;;11.03;49.60;93359.50;5017973;28;20394;-78
2022/04/02 04:04:32;;;;;;;1.48;1.10;;;;;;;11.08;49.78;93361.31;4999120;28;20084;-78
2022/04/02 04:06:57;;;;;;;3.50;1.10;;;;;;;11.17;49.21;93370.09;5015049;28;20080;-78
2022/04/02 04:09:23;;;;;;;3.55;1.20;;;;;;;11.14;49.56;93381.06;5012043;28;20076;-77
2022/04/02 04:11:48;;;;;;;2.33;1.25;;;;;;;11.17;48.77;93380.50;5013632;28;20061;-77
2022/04/02 04:14:15;;;;;;;3.85;1.92;;;;;;;11.24;48.96;93393.22;4998366;28;20034;-77
2022/04/02 04:16:41;;;;;;;1.67;1.30;;;;;;;11.30;48.91;93395.53;4985120;28;20032;-78
2022/04/02 04:19:06;;;;;;;2.70;1.73;;;;;;;11.30;48.69;93400.72;5014404;28;20583;-78
2022/04/02 04:21:32;;;;;;;2.30;1.38;;;;;;;11.36;48.29;93404.84;5026390;28;20029;-77
2022/04/02 04:23:57;;;;;;;2.92;1.30;;;;;;;11.50;47.66;93401.63;5034338;28;20037;-78
2022/04/02 04:26:23;;;;;;;2.08;1.48;;;;;;;11.54;48.03;93397.44;5049926;28;20099;-78
2022/04/02 04:28:49;;;;;;;4.43;1.17;;;;;;;11.65;47.84;93414.53;5016309;28;20040;-78
2022/04/02 04:31:17;;;;;;;2.92;1.23;;;;;;;11.72;47.75;93410.59;5032869;28;20044;-77
2022/04/02 04:33:46;;;;;;;2.25;1.30;;;;;;;11.78;47.75;93411.31;5033888;28;20438;-78
2022/04/02 04:36:11;;;;;;;2.70;1.10;;;;;;;11.77;47.45;93398.56;5033309;28;20044;-78
2022/04/02 04:38:37;;;;;;;4.80;1.27;;;;;;;11.93;47.09;93413.81;5033411;28;20037;-78
2022/04/02 04:41:02;;;;;;;1.33;1.17;;;;;;;12.04;46.35;93419.75;5034111;28;20033;-78
2022/04/02 04:43:28;;;;;;;4.20;1.20;;;;;;;12.24;46.13;93416.16;4997240;28;20072;-78
2022/04/02 04:45:54;;;;;;;1.63;1.23;;;;;;;12.29;45.49;93423.91;5025537;28;20047;-78
2022/04/02 04:48:20;;;;;;;2.63;1.15;;;;;;;12.28;45.93;93435.41;5050232;28;20033;-78
2022/04/02 04:50:46;;;;;;;2.92;1.13;;;;;;;13.20;43.94;93435.97;5049960;28;20033;-78
2022/04/02 04:53:12;;;;;;;1.35;1.25;;;;;;;14.91;40.14;93448.38;5035033;28;20039;-78
2022/04/02 04:55:37;;;;;;;1.45;1.05;;;;;;;15.39;38.53;93455.78;5039519;28;20025;-78
2022/04/02 04:58:02;;;;;;;1.70;1.20;;;;;;;15.27;39.00;93445.03;5061022;28;20042;-77
2022/04/02 05:00:28;;;;;;;4.13;1.20;;;;;;;15.55;38.55;93457.00;5021978;28;20033;-78
2022/04/02 05:02:53;;;;;;;3.17;2.70;;;;;;;17.73;34.12;93436.75;5051766;28;20033;-79
2022/04/02 05:05:19;;;;;;;5.43;1.77;;;;;;;19.82;30.61;93435.69;5020598;28;20029;-78
2022/04/02 05:07:45;;;;;;;3.63;1.77;;;;;;;21.96;26.57;93427.41;5035254;28;20064;-78
2022/04/02 05:10:10;;;;;;;2.35;1.48;;;;;;;23.80;23.95;93435.72;5039565;28;20044;-78
2022/04/02 05:12:36;;;;;;;2.35;1.30;;;;;;;25.21;22.60;93430.69;5035532;28;20030;-78
2022/04/02 05:15:02;;;;;;;3.17;2.45;;;;;;;26.47;20.98;93440.00;5020940;28;20033;-78
2022/04/02 05:17:27;;;;;;;4.10;1.55;;;;;;;26.80;20.05;93436.50;5037000;28;20029;-79
2022/04/02 05:19:53;;;;;;;5.10;1.40;;;;;;;26.84;20.07;93431.19;5037518;28;20413;-78
2022/04/02 05:22:24;;;;;;;2.55;1.00;;;;;;;27.98;19.19;93437.38;5034608;28;20037;-78
2022/04/02 05:24:50;;;;;;;2.67;1.00;;;;;;;29.23;17.97;93428.53;5016717;28;20045;-78
2022/04/02 05:27:15;;;;;;;3.85;1.00;;;;;;;29.69;17.02;93422.41;5048306;28;20026;-78
2022/04/02 05:29:40;;;;;;;2.38;0.80;;;;;;;30.07;16.59;93433.41;5058678;28;20036;-79
2022/04/02 05:32:07;;;;;;;1.08;1.00;;;;;;;30.64;16.07;93430.50;5039708;28;20029;-79
2022/04/02 05:34:32;;;;;;;4.45;1.02;;;;;;;31.23;15.73;93438.56;5020246;28;20127;-79
2022/04/02 05:36:58;;;;;;;2.92;0.77;;;;;;;31.75;14.77;93443.91;5034591;28;20038;-77
2022/04/02 05:39:24;;;;;;;2.17;0.70;;;;;;;31.69;14.43;93448.91;5032699;28;20073;-78
2022/04/02 05:41:49;;;;;;;3.05;0.75;;;;;;;31.15;14.49;93447.81;5056848;28;20030;-78
2022/04/02 05:44:15;;;;;;;1.10;0.60;;;;;;;30.21;15.66;93441.41;5035229;28;20073;-78
2022/04/02 05:46:40;;;;;;;0.85;0.77;;;;;;;30.12;15.87;93457.16;5037562;28;20037;-77
2022/04/02 05:49:06;;;;;;;1.08;0.77;;;;;;;28.93;16.66;93436.94;5037728;28;20025;-77
2022/04/02 05:51:58;;;;;;;2.03;1.00;;;;;;;28.60;17.39;93439.91;5057706;28;20033;-78
2022/04/02 05:55:02;;;;;;;3.22;0.90;;;;;;;28.64;17.27;93440.72;5056292;28;20064;-78
2022/04/02 05:57:28;;;;;;;4.28;0.70;;;;;;;28.10;17.21;93429.81;5020280;28;20069;-78
2022/04/02 05:59:54;;;;;;;1.67;0.95;;;;;;;26.93;18.47;93426.34;5018375;28;20030;-78
2022/04/02 06:04:57;;;;;;;1.38;0.93;;;;;;;25.35;19.78;93427.50;5136390;22;20071;-79
2022/04/02 06:07:23;;;;;;;2.67;1.02;;;;;;;24.24;21.18;93446.06;5054814;28;20036;-79
2022/04/02 06:09:48;;;;;;;1.33;0.75;;;;;;;23.82;22.08;93449.41;5054905;28;20562;-78
2022/04/02 06:12:13;;;;;;;5.10;1.38;;;;;;;22.75;22.90;93462.81;5054345;28;20358;-78
2022/04/02 06:14:39;;;;;;;1.95;1.83;;;;;;;22.18;24.09;93463.22;5054259;28;20032;-79
2022/04/02 06:17:04;;;;;;;2.00;1.17;;;;;;;21.02;25.65;93438.25;5051738;28;20041;-78
2022/04/02 06:19:30;;;;;;;1.95;1.23;;;;;;;19.82;27.56;93448.09;5051195;28;20025;-78
2022/04/02 06:21:55;;;;;;;2.03;0.90;;;;;;;19.62;28.51;93457.56;5019772;28;20029;-78
2022/04/02 06:24:21;;;;;;;4.85;1.20;;;;;;;19.67;28.12;93468.69;5047986;28;20028;-78
2022/04/02 06:26:46;;;;;;;5.38;1.63;;;;;;;19.31;29.04;93436.78;5034870;28;20611;-78
2022/04/02 06:29:12;;;;;;;5.55;1.67;;;;;;;18.89;29.57;93468.31;5035564;28;20033;-77
2022/04/02 06:31:39;;;;;;;3.55;1.52;;;;;;;19.01;29.75;93455.22;5053089;28;20025;-77
2022/04/02 06:34:04;;;;;;;2.38;1.30;;;;;;;18.74;30.05;93460.94;5062623;28;20032;-78
2022/04/02 06:36:30;;;;;;;3.65;1.52;;;;;;;18.21;30.19;93475.25;5026540;28;20482;-78
2022/04/02 06:38:56;;;;;;;6.10;1.50;;;;;;;17.75;31.36;93479.31;5056381;28;20120;-78
2022/04/02 06:41:28;;;;;;;7.57;1.40;;;;;;;17.81;31.43;93483.31;5049596;28;20096;-78
2022/04/02 06:43:54;;;;;;;2.53;1.60;;;;;;;17.92;31.67;93476.66;5006526;28;20451;-77
2022/04/02 06:46:20;;;;;;;10.32;1.90;;;;;;;18.06;31.53;93473.88;5036784;28;20029;-77
2022/04/02 06:48:45;;;;;;;2.30;1.90;;;;;;;18.01;31.50;93479.28;5053512;28;20033;-77
2022/04/02 06:51:11;;;;;;;4.82;1.92;;;;;;;18.17;31.18;93482.22;5051200;28;20087;-77
2022/04/02 06:53:36;;;;;;;5.63;1.77;;;;;;;18.17;31.23;93485.63;5046638;28;20416;-78
2022/04/02 06:56:02;;;;;;;9.68;1.73;;;;;;;18.20;31.09;93502.63;5060387;28;20040;-78
2022/04/02 06:58:29;;;;;;;4.07;1.98;;;;;;;18.10;30.98;93482.69;5047118;28;20381;-77
2022/04/02 07:00:54;;;;;;;2.03;1.55;;;;;;;18.09;31.22;93504.84;5022671;28;20044;-76
2022/04/02 07:03:20;;;;;;;4.55;1.17;;;;;;;17.96;30.43;93496.00;5052129;28;20108;-79
2022/04/02 07:05:46;;;;;;;5.60;1.50;;;;;;;18.11;31.21;93515.03;5062446;28;20028;-78
2022/04/02 07:08:11;;;;;;;10.65;1.30;;;;;;;18.36;31.27;93524.75;5065322;28;20040;-78
2022/04/02 07:10:36;;;;;;;6.60;1.63;;;;;;;18.45;30.40;93522.91;5058707;28;20051;-79
2022/04/02 07:13:02;;;;;;;3.90;1.92;;;;;;;18.62;30.58;93529.22;5035763;28;20087;-78
2022/04/02 07:15:27;;;;;;;3.92;1.60;;;;;;;18.81;30.10;93519.16;5033223;28;20049;-78
2022/04/02 07:17:53;;;;;;;11.13;1.23;;;;;;;18.69;29.67;93540.06;5038913;28;20038;-78
2022/04/02 07:20:18;;;;;;;5.85;1.40;;;;;;;18.81;30.01;93529.69;5023635;28;20048;-79
2022/04/02 07:22:44;;;;;;;3.40;2.03;;;;;;;18.92;30.61;93530.13;5052909;28;20033;-79
2022/04/02 07:25:10;;;;;;;2.03;1.20;;;;;;;18.88;29.28;93530.00;5052300;28;20029;-78
2022/04/02 07:27:38;;;;;;;5.15;1.48;;;;;;;18.78;29.71;93543.47;5033709;28;20032;-77
2022/04/02 07:30:04;;;;;;;11.77;1.40;;;;;;;18.76;29.88;93546.44;5035764;28;20096;-81
2022/04/02 07:32:30;;;;;;;8.13;1.33;;;;;;;18.67;29.50;93529.09;5052837;28;20079;-78
2022/04/02 07:35:06;;;;;;;8.68;1.70;;;;;;;18.43;30.16;93545.38;5050505;28;20029;-77
2022/04/02 07:37:55;;;;;;;8.68;2.25;;;;;;;18.52;30.63;93549.53;5033389;28;20029;-79
2022/04/02 07:40:29;;;;;;;13.50;2.30;;;;;;;18.75;30.11;93533.56;5054710;28;20032;-78
2022/04/02 07:43:02;;;;;;;2.28;1.45;;;;;;;18.77;29.48;93528.78;5051626;28;20040;-78
2022/04/02 07:45:30;;;;;;;8.30;1.73;;;;;;;18.83;29.92;93522.22;5052550;28;20037;-78
2022/04/02 07:47:56;;;;;;;5.70;2.10;;;;;;;18.68;30.44;93538.53;5052189;28;20496;-78
2022/04/02 07:50:23;;;;;;;2.95;1.80;;;;;;;18.86;30.12;93540.03;5051502;28;20036;-78
2022/04/02 07:52:50;;;;;;;9.35;2.15;;;;;;;19.19;29.76;93556.81;5014059;28;20041;-78
2022/04/02 07:55:15;;;;;;;4.47;2.03;;;;;;;19.24;29.27;93526.91;5046522;28;20063;-78
2022/04/02 07:57:43;;;;;;;5.65;0.98;;;;;;;19.37;29.10;93531.19;5030874;28;20017;-77
2022/04/02 08:00:10;;;;;;;12.90;1.65;;;;;;;19.66;28.91;93527.78;5033887;28;20112;-76
2022/04/02 08:02:37;;;;;;;3.65;1.88;;;;;;;19.66;29.17;93522.53;5034707;28;20416;-77
2022/04/02 08:05:04;;;;;;;2.97;1.42;;;;;;;19.77;28.99;93526.34;5036366;28;20075;-78
2022/04/02 08:07:35;;;;;;;4.72;1.55;;;;;;;19.61;28.69;93508.75;5029413;28;20025;-78
2022/04/02 08:10:03;;;;;;;4.50;2.08;;;;;;;19.29;29.18;93515.41;5044965;28;20523;-77
2022/04/02 08:12:29;;;;;;;2.42;1.20;;;;;;;19.24;28.31;93499.78;5025205;28;20044;-77
2022/04/02 08:14:54;;;;;;;4.63;1.40;;;;;;;19.20;29.76;93515.47;5033662;28;20033;-78
2022/04/02 08:17:21;;;;;;;7.13;1.70;;;;;;;19.24;29.13;93518.22;5047141;28;20073;-77
2022/04/02 08:19:50;;;;;;;3.45;1.15;;;;;;;19.32;28.53;93526.09;5041832;28;20025;-75
2022/04/02 08:22:18;;;;;;;5.47;1.35;;;;;;;19.33;29.18;93534.75;5026536;28;20024;-76
2022/04/02 08:24:44;;;;;;;5.72;1.33;;;;;;;19.49;29.18;93527.88;5044820;28;20484;-75
2022/04/02 08:27:35;;;;;;;5.03;2.45;;;;;;;19.59;28.52;93517.00;5048818;28;20044;-76
2022/04/02 08:30:07;;;;;;;4.70;1.48;;;;;;;19.48;28.67;93507.88;5040379;28;20623;-77
2022/04/02 08:32:45;;;;;;;9.63;1.67;;;;;;;19.39;29.21;93501.88;5040062;28;20037;-77
2022/04/02 08:35:11;;;;;;;3.80;1.40;;;;;;;19.45;29.20;93505.88;5040201;28;20037;-76
2022/04/02 08:37:36;;;;;;;8.27;1.83;;;;;;;19.59;29.32;93511.72;5030487;28;20036;-78
2022/04/02 08:40:20;;;;;;;3.60;1.92;;;;;;;19.88;28.60;93523.34;5036213;28;20128;-76
2022/04/02 08:43:23;;;;;;;5.15;1.60;;;;;;;20.05;27.84;93502.09;5045788;28;20048;-76
2022/04/02 08:46:40;;;;;;;4.70;1.70;;;;;;;19.79;27.92;93520.75;5035009;28;20037;-76
2022/04/02 08:49:27;;;;;;;3.42;1.67;;;;;;;19.78;28.64;93506.78;5017859;28;20064;-76
2022/04/02 08:52:12;;;;;;;5.40;1.80;;;;;;;19.62;29.25;93507.66;5028084;28;20028;-76
2022/04/02 08:54:40;;;;;;;2.85;1.33;;;;;;;19.47;28.32;93514.22;5040813;28;20508;-76
2022/04/02 08:57:29;;;;;;;4.97;1.65;;;;;;;19.23;28.87;93524.59;5047893;28;20455;-76
2022/04/02 09:00:08;;;;;;;9.23;1.20;;;;;;;18.97;29.92;93535.22;5016729;28;20041;-76
2022/04/02 09:02:45;;;;;;;6.38;1.27;;;;;;;19.07;30.00;93517.22;5052453;28;20511;-77
2022/04/02 09:05:32;;;;;;;3.80;1.40;;;;;;;19.05;30.39;93519.41;5052208;28;20109;-76
2022/04/02 09:08:20;;;;;;;3.70;1.50;;;;;;;19.05;29.45;93503.59;5050030;28;20059;-77
2022/04/02 09:10:51;;;;;;;1.92;1.38;;;;;;;18.97;29.32;93501.75;5044355;28;20030;-76
2022/04/02 09:13:38;;;;;;;4.18;2.20;;;;;;;18.95;29.82;93498.66;5041064;28;20575;-76
2022/04/02 09:16:07;;;;;;;3.90;1.92;;;;;;;19.02;29.56;93504.19;5042820;28;20041;-77
2022/04/02 09:18:42;;;;;;;14.40;2.85;;;;;;;19.14;30.03;93512.22;5053201;28;20485;-78
2022/04/02 09:21:22;;;;;;;3.05;1.60;;;;;;;18.99;28.94;93483.75;5039160;28;20040;-77
2022/04/02 09:23:54;;;;;;;2.33;1.45;;;;;;;18.74;30.51;93500.44;5048226;28;20112;-78
2022/04/02 09:26:54;;;;;;;4.38;1.52;;;;;;;18.74;30.77;93492.53;5040190;28;20472;-77
2022/04/02 09:29:27;;;;;;;5.72;1.60;;;;;;;18.64;30.93;93513.91;5040701;28;20033;-77
2022/04/02 09:32:08;;;;;;;12.05;2.10;;;;;;;18.87;31.62;93507.34;5012302;28;20068;-77
2022/04/02 09:34:46;;;;;;;7.05;1.70;;;;;;;19.00;30.49;93495.84;5044927;28;20037;-77
2022/04/02 09:37:22;;;;;;;1.35;1.25;;;;;;;18.84;30.59;93487.69;5047452;28;20039;-80
2022/04/02 09:40:06;;;;;;;5.93;1.27;;;;;;;18.82;30.05;93483.81;5049164;28;20041;-76
2022/04/02 09:42:43;;;;;;;7.68;1.40;;;;;;;18.59;30.21;93485.88;5053448;28;20059;-76
2022/04/02 09:45:12;;;;;;;7.78;1.00;;;;;;;18.44;30.12;93473.97;5055593;28;20067;-79
2022/04/02 09:48:15;;;;;;;5.60;1.40;;;;;;;18.23;29.66;93484.41;5057250;28;20095;-79
2022/04/02 09:50:41;;;;;;;1.30;1.20;;;;;;;18.02;29.88;93501.09;5058020;28;20044;-76
2022/04/02 09:53:15;;;;;;;7.72;1.35;;;;;;;17.94;30.54;93487.66;5038079;28;20424;-79
2022/04/02 09:55:45;;;;;;;2.92;1.15;;;;;;;17.77;30.28;93503.44;5053330;28;20037;-79
2022/04/02 09:58:29;;;;;;;3.55;0.95;;;;;;;17.64;31.50;93499.03;5052817;28;20036;-78
2022/04/02 10:01:05;;;;;;;4.22;1.45;;;;;;;17.57;31.67;93493.44;5053179;28;20080;-76
2022/04/02 10:03:36;;;;;;;4.03;1.17;;;;;;;17.58;32.06;93500.28;5040538;28;20534;-77
2022/04/02 10:06:04;;;;;;;7.40;2.13;;;;;;;17.51;32.24;93481.53;5032995;28;20041;-76
2022/04/02 10:08:43;;;;;;;1.95;1.42;;;;;;;17.49;31.38;93455.56;5032238;28;20037;-76
2022/04/02 10:11:08;;;;;;;2.53;1.20;;;;;;;17.45;32.23;93480.16;5046594;28;20489;-77
2022/04/02 10:13:34;;;;;;;1.60;1.50;;;;;;;17.53;32.32;93466.25;5026492;28;20067;-77
2022/04/02 10:16:00;;;;;;;5.00;1.50;;;;;;;17.45;31.20;93474.91;5051421;28;20056;-77
2022/04/02 10:18:25;;;;;;;2.72;2.00;;;;;;;17.35;30.60;93471.47;5049840;28;20465;-76
2022/04/02 10:20:51;;;;;;;5.20;1.50;;;;;;;17.24;30.30;93480.69;5033570;28;20067;-77
2022/04/02 10:23:21;;;;;;;1.75;1.30;;;;;;;17.19;30.17;93457.22;5051357;28;20061;-78
2022/04/02 10:26:07;;;;;;;1.90;1.45;;;;;;;17.30;30.20;93481.34;5055120;28;20428;-79
2022/04/02 10:28:33;;;;;;;1.92;1.10;;;;;;;17.51;30.33;93463.16;5057559;28;20040;-78
2022/04/02 10:31:00;;;;;;;1.67;0.95;;;;;;;17.54;29.18;93431.00;5054865;28;20052;-80
2022/04/02 10:33:29;;;;;;;6.82;1.40;;;;;;;17.54;29.60;93458.03;5006613;28;20096;-80
2022/04/02 10:35:55;;;;;;;3.03;0.85;;;;;;;17.65;28.98;93453.28;5051841;28;20045;-78
2022/04/02 10:38:29;;;;;;;2.67;1.50;;;;;;;17.75;29.74;93449.59;5037090;28;20032;-78
2022/04/02 10:40:55;;;;;;;1.90;1.42;;;;;;;17.80;29.32;93450.22;5056142;28;20044;-78
2022/04/02 10:43:27;;;;;;;8.35;1.83;;;;;;;17.77;29.43;93453.47;5053729;28;20082;-78
2022/04/02 10:45:53;;;;;;;2.70;1.90;;;;;;;17.65;30.07;93463.78;5058974;28;20045;-77
2022/04/02 10:48:27;;;;;;;6.22;1.77;;;;;;;17.55;29.49;93466.69;5061951;28;20048;-77
2022/04/02 10:50:54;;;;;;;5.70;1.50;;;;;;;17.55;29.57;93437.78;5066347;28;20055;-78
2022/04/02 10:53:19;;;;;;;3.03;2.03;;;;;;;17.50;29.53;93451.09;5060453;28;20037;-78
2022/04/02 10:55:46;;;;;;;2.85;1.75;;;;;;;17.46;29.50;93466.72;5055231;28;20037;-78
2022/04/02 10:58:12;;;;;;;6.55;2.90;;;;;;;17.49;29.96;93470.56;5037723;28;20606;-78
2022/04/02 11:00:40;;;;;;;4.72;2.60;;;;;;;17.59;30.10;93467.66;5038241;28;20116;-78
2022/04/02 11:03:08;;;;;;;1.85;1.63;;;;;;;17.77;29.86;93469.25;5035225;28;20401;-78
2022/04/02 11:05:37;;;;;;;2.22;1.30;;;;;;;17.85;28.26;93452.69;5036083;28;20446;-78
2022/04/02 11:08:12;;;;;;;6.50;2.67;;;;;;;17.84;29.43;93469.53;5020448;28;20022;-78
2022/04/02 11:10:37;;;;;;;2.15;1.80;;;;;;;17.90;28.98;93438.63;5060140;28;20417;-78
2022/04/02 11:13:04;;;;;;;3.85;1.80;;;;;;;17.91;28.93;93405.97;5041393;28;20034;-78
2022/04/02 11:15:31;;;;;;;3.22;2.17;;;;;;;17.87;29.06;93466.28;5054337;28;20037;-78
2022/04/02 11:17:58;;;;;;;9.25;1.80;;;;;;;18.11;29.23;93460.56;5051588;28;20040;-78
2022/04/02 11:20:25;;;;;;;7.72;1.67;;;;;;;18.02;29.51;93485.31;5035374;28;20127;-78
2022/04/02 11:22:57;;;;;;;3.45;2.30;;;;;;;18.09;28.70;93498.81;5058044;28;20045;-78
2022/04/02 11:25:24;;;;;;;7.50;1.58;;;;;;;18.02;28.43;93509.00;5047893;28;20493;-78
2022/04/02 11:27:54;;;;;;;8.68;1.60;;;;;;;17.81;31.98;93517.50;5055645;28;20086;-79
2022/04/02 11:30:20;;;;;;;8.38;2.38;;;;;;;17.44;36.81;93552.19;5023937;28;20634;-78
2022/04/02 11:32:46;;;;;;;5.45;1.70;;;;;;;17.07;37.46;93565.47;5054410;28;20040;-78
2022/04/02 11:35:22;;;;;;;6.60;3.35;;;;;;;16.65;38.99;93564.16;5020928;28;20033;-78
2022/04/02 11:38:09;;;;;;;3.53;2.28;;;;;;;16.01;42.46;93618.59;5053162;28;20033;-78
2022/04/02 11:40:39;;;;;;;14.27;4.72;;;;;;;15.54;44.52;93610.03;5053721;28;20041;-78
2022/04/02 11:43:05;;;;;;;9.73;6.72;;;;;;;15.30;46.67;93609.47;5040276;28;20037;-77
2022/04/02 11:45:30;;;;;;;11.80;4.63;;;;;;;15.02;47.29;93598.94;5054432;28;20099;-78
2022/04/02 11:48:10;;;;;;;3.45;2.95;;;;;;;14.79;47.38;93599.06;5053768;28;20068;-78